CheckWX is a tool to help pilots better visualize weather data.  It is not intended as a substitute for an official pre-flight weather briefing.

23:23:17 UTC

KCEC METAR
Jack Mc Namara Field Airport
Crescent City, California, USA
Current

27 mins ago

KCEC 242256Z AUTO 34010KT 10SM CLR 11/05 A3050 RMK AO2 SLP329 T01110050
Observed
Feb-24 @ 22:56 UTC
Wind
  • 340° at 10 KTS
Visibility
10 SM
Flight Rules
VFR
Cloud Levels
  • Clear skies
Temperature
11°C / 52°F
Dewpoint
C / 41°F
Humidity
67%
Altimeter
30.5" Hg
Pressure
1032.82 hPa
Previous

1 hour ago

KCEC 242156Z AUTO 35010KT 10SM CLR 11/04 A3051 RMK AO2 SLP331 T01110044
Observed
Feb-24 @ 21:56 UTC
Wind
  • 350° at 10 KTS
Visibility
10 SM
Flight Rules
VFR
Cloud Levels
  • Clear skies
Temperature
11°C / 52°F
Dewpoint
C / 39°F
Humidity
62%
Altimeter
30.51" Hg
Pressure
1033.22 hPa
Previous

2 hours ago

KCEC 242056Z AUTO 32008KT 10SM CLR 11/04 A3052 RMK AO2 SLP335 T01060039 58014
Observed
Feb-24 @ 20:56 UTC
Wind
  • 320° at 8 KTS
Visibility
10 SM
Flight Rules
VFR
Cloud Levels
  • Clear skies
Temperature
11°C / 52°F
Dewpoint
C / 39°F
Humidity
62%
Altimeter
30.52" Hg
Pressure
1033.52 hPa